Time;durP1;ratioP1;P1;durP2;ratioP2;P2;SDS_P1;SDS_P2;PMS_P1;PMS_P2;Temp;Humidity;BMP_temperature;BMP_pressure;BME280_temperature;BME280_humidity;BME280_pressure;Samples;Min_cycle;Max_cycle;Signal;HPM_P1;HPM_P2
2021/12/07 00:01:46;;;;;;;6.53;5.10;;;;;;;3.86;83.90;97490.78;5057843;28;20632;-85
2021/12/07 00:04:15;;;;;;;7.40;5.53;;;;;;;3.91;82.79;97495.69;5060108;28;20635;-85
2021/12/07 00:06:44;;;;;;;5.80;4.93;;;;;;;3.92;82.95;97489.63;5090993;28;20769;-85
2021/12/07 00:09:16;;;;;;;7.93;5.60;;;;;;;3.96;82.76;97488.56;5051574;28;20635;-85
2021/12/07 00:11:47;;;;;;;6.33;5.00;;;;;;;4.00;83.15;97480.59;5063352;28;20643;-85
2021/12/07 00:14:23;;;;;;;7.20;5.47;;;;;;;4.02;83.65;97477.94;5076043;28;20660;-85
2021/12/07 00:16:53;;;;;;;7.10;5.37;;;;;;;4.03;82.96;97458.94;5060325;28;20622;-85
2021/12/07 00:19:22;;;;;;;9.57;5.70;;;;;;;3.93;84.18;97434.56;5062592;28;20639;-85
2021/12/07 00:21:52;;;;;;;7.53;6.10;;;;;;;3.81;84.87;97450.69;5094011;28;20628;-85
2021/12/07 00:24:20;;;;;;;6.87;5.80;;;;;;;3.80;84.05;97447.28;5060056;28;20635;-85
2021/12/07 00:26:50;;;;;;;7.43;5.90;;;;;;;3.80;83.93;97438.69;5047114;28;21069;-85
2021/12/07 00:29:18;;;;;;;7.13;5.10;;;;;;;3.84;84.38;97442.78;5060339;28;20621;-85
2021/12/07 00:31:52;;;;;;;8.10;5.93;;;;;;;3.85;84.34;97439.31;5076441;28;20628;-85
2021/12/07 00:34:39;;;;;;;8.03;6.00;;;;;;;3.85;85.13;97429.81;5072434;28;20751;-85
2021/12/07 00:37:08;;;;;;;7.70;5.80;;;;;;;3.84;84.39;97429.91;5055971;28;20643;-84
2021/12/07 00:39:37;;;;;;;7.47;5.80;;;;;;;3.83;83.54;97438.53;5053332;28;20680;-85
2021/12/07 00:42:07;;;;;;;8.07;5.33;;;;;;;3.83;83.21;97425.63;5056028;28;21032;-85
2021/12/07 00:44:35;;;;;;;7.03;5.60;;;;;;;3.88;83.45;97436.56;5052294;28;20653;-85
2021/12/07 00:47:04;;;;;;;7.37;5.33;;;;;;;3.91;83.84;97431.22;5063881;28;20634;-85
2021/12/07 00:49:32;;;;;;;6.43;5.03;;;;;;;3.95;83.22;97427.56;5065622;28;21407;-85
2021/12/07 00:52:00;;;;;;;9.47;5.20;;;;;;;3.97;82.67;97431.75;5059267;28;20636;-85
2021/12/07 00:54:30;;;;;;;5.47;4.80;;;;;;;4.02;83.00;97436.66;5053792;28;20654;-85
2021/12/07 00:56:58;;;;;;;6.67;4.90;;;;;;;4.02;83.35;97444.41;5092950;28;20640;-85
2021/12/07 00:59:27;;;;;;;7.10;4.90;;;;;;;4.02;83.42;97445.22;5045316;28;20712;-85
2021/12/07 01:01:56;;;;;;;5.87;4.80;;;;;;;4.05;84.14;97441.66;5066686;28;20629;-85
2021/12/07 01:04:28;;;;;;;8.80;5.53;;;;;;;4.08;84.78;97449.22;5043306;28;20612;-85
2021/12/07 01:07:04;;;;;;;7.33;5.10;;;;;;;4.09;83.63;97449.16;5047756;28;20659;-85
2021/12/07 01:09:40;;;;;;;6.97;4.80;;;;;;;4.13;83.92;97448.06;5062237;28;20639;-84
2021/12/07 01:26:02;;;;;;;6.30;4.90;;;;;;;4.10;87.11;97449.97;5063157;28;20624;-84
2021/12/07 01:28:34;;;;;;;6.53;4.50;;;;;;;4.08;87.75;97452.63;5049180;28;20635;-84
2021/12/07 01:31:13;;;;;;;6.93;5.03;;;;;;;4.07;87.88;97448.38;5055034;28;21253;-85
2021/12/07 01:34:06;;;;;;;7.07;5.20;;;;;;;4.07;87.63;97447.56;5045979;28;20632;-85
2021/12/07 01:36:45;;;;;;;7.50;5.30;;;;;;;4.05;89.13;97447.63;5060066;28;21179;-85
2021/12/07 01:45:11;;;;;;;6.50;4.47;;;;;;;4.08;89.18;97444.91;5081493;28;20616;-85
2021/12/07 01:47:52;;;;;;;5.83;4.47;;;;;;;4.05;89.36;97439.06;5050565;28;20719;-85
2021/12/07 01:50:44;;;;;;;5.33;4.10;;;;;;;4.01;88.96;97445.31;5079966;28;21407;-85
2021/12/07 02:01:25;;;;;;;6.63;5.10;;;;;;;3.91;89.51;97442.38;5094930;28;20639;-85
2021/12/07 02:03:55;;;;;;;7.00;5.10;;;;;;;3.92;90.72;97438.88;5076118;28;20702;-84
2021/12/07 02:06:23;;;;;;;7.90;5.50;;;;;;;3.92;90.71;97440.63;5060437;28;20658;-85
2021/12/07 02:08:51;;;;;;;6.43;4.37;;;;;;;3.92;89.92;97438.03;5071785;28;21096;-85
2021/12/07 02:11:22;;;;;;;6.50;4.77;;;;;;;3.92;90.13;97445.78;5050282;28;20638;-85
2021/12/07 02:14:16;;;;;;;5.00;3.80;;;;;;;3.90;89.01;97445.03;5045179;28;20682;-85
2021/12/07 02:16:48;;;;;;;3.93;3.30;;;;;;;3.80;89.61;97449.00;5053402;28;20633;-85
2021/12/07 02:19:18;;;;;;;4.23;3.30;;;;;;;3.65;91.58;97457.53;5063916;28;20638;-84
2021/12/07 02:21:48;;;;;;;5.47;4.10;;;;;;;3.56;91.32;97452.84;5054728;28;20633;-85
2021/12/07 02:24:22;;;;;;;5.00;3.37;;;;;;;3.47;92.30;97458.50;5063319;28;20643;-84
2021/12/07 02:26:50;;;;;;;5.67;3.73;;;;;;;3.34;92.64;97454.03;5057943;28;20992;-85
2021/12/07 02:29:20;;;;;;;5.00;3.90;;;;;;;3.33;93.44;97455.75;5050251;28;20628;-85
2021/12/07 02:31:49;;;;;;;4.73;3.60;;;;;;;3.35;93.74;97459.09;5052195;28;20739;-85
2021/12/07 02:34:18;;;;;;;5.17;3.90;;;;;;;3.41;93.89;97452.78;5055237;28;20620;-84
2021/12/07 02:36:50;;;;;;;5.13;3.80;;;;;;;3.45;93.43;97460.28;5064340;28;20724;-84
2021/12/07 02:39:29;;;;;;;4.90;4.00;;;;;;;3.51;93.52;97448.84;5075925;28;20632;-84
2021/12/07 02:41:58;;;;;;;5.23;3.60;;;;;;;3.58;93.34;97450.19;5057929;28;20632;-84
2021/12/07 02:44:27;;;;;;;6.53;3.83;;;;;;;3.64;93.17;97455.88;5073487;28;20620;-85
2021/12/07 02:46:55;;;;;;;4.97;3.70;;;;;;;3.73;94.01;97455.41;5070163;28;20612;-84
2021/12/07 02:49:24;;;;;;;4.50;3.23;;;;;;;3.80;93.30;97454.16;5073961;28;20727;-85
2021/12/07 02:51:53;;;;;;;5.60;3.83;;;;;;;3.86;93.10;97453.84;5064980;28;20632;-85
2021/12/07 02:54:21;;;;;;;4.30;3.20;;;;;;;3.90;92.02;97447.63;5042461;28;20639;-84
2021/12/07 02:56:51;;;;;;;4.60;3.53;;;;;;;3.96;92.23;97452.47;5043849;28;20720;-84
2021/12/07 02:59:22;;;;;;;4.27;3.40;;;;;;;4.00;92.89;97454.78;5063178;28;21220;-85
2021/12/07 03:01:58;;;;;;;5.03;4.10;;;;;;;4.03;93.02;97464.09;5063418;28;20636;-85
2021/12/07 03:04:33;;;;;;;5.10;3.40;;;;;;;4.08;93.27;97475.03;5050012;28;20628;-85
2021/12/07 03:07:11;;;;;;;6.43;4.57;;;;;;;4.12;93.09;97468.78;5064641;28;20655;-85
2021/12/07 03:10:07;;;;;;;7.07;5.30;;;;;;;4.15;92.41;97471.19;5065887;28;21201;-85
2021/12/07 03:26:29;;;;;;;5.57;3.90;;;;;;;4.16;91.96;97472.88;5064249;28;21192;-84
2021/12/07 03:29:00;;;;;;;7.37;4.63;;;;;;;4.17;91.74;97479.69;5061624;28;20613;-84
2021/12/07 03:31:30;;;;;;;4.80;3.93;;;;;;;4.16;92.63;97475.44;5058040;28;20655;-84
2021/12/07 03:34:01;;;;;;;5.73;3.33;;;;;;;4.18;91.92;97479.63;5047954;28;20636;-84
2021/12/07 03:36:32;;;;;;;5.07;4.07;;;;;;;4.20;92.17;97478.59;5048922;28;20663;-84
2021/12/07 03:39:04;;;;;;;5.37;3.10;;;;;;;4.21;92.20;97472.53;5039202;28;20686;-84
2021/12/07 03:41:32;;;;;;;5.30;3.63;;;;;;;4.13;93.01;97467.88;5067891;28;20735;-84
2021/12/07 03:44:01;;;;;;;4.63;3.13;;;;;;;4.16;92.84;97475.44;5096018;28;21178;-85
2021/12/07 03:46:30;;;;;;;5.03;3.57;;;;;;;4.20;92.14;97482.13;5073679;28;20718;-85
2021/12/07 03:48:59;;;;;;;3.47;2.57;;;;;;;4.19;92.54;97480.44;5048860;28;20725;-84
2021/12/07 03:51:27;;;;;;;4.43;3.30;;;;;;;4.23;93.29;97487.94;5069455;28;20618;-84
2021/12/07 03:53:57;;;;;;;4.13;3.30;;;;;;;4.29;93.48;97492.78;5072280;28;20623;-84
2021/12/07 03:56:26;;;;;;;4.20;3.30;;;;;;;4.33;93.46;97494.25;5064133;28;21293;-84
2021/12/07 03:58:54;;;;;;;4.23;3.33;;;;;;;4.37;93.34;97506.91;5073052;28;20639;-85
2021/12/07 04:01:24;;;;;;;5.17;3.57;;;;;;;4.41;93.12;97503.25;5048865;28;20628;-85
2021/12/07 04:03:54;;;;;;;6.77;3.03;;;;;;;4.43;93.19;97516.09;5042640;28;20656;-84
2021/12/07 04:06:23;;;;;;;4.57;3.00;;;;;;;4.45;92.64;97515.09;5055034;28;20755;-84
2021/12/07 04:08:51;;;;;;;4.43;3.30;;;;;;;4.48;93.55;97519.25;5039464;28;20646;-84
2021/12/07 04:11:19;;;;;;;4.27;2.80;;;;;;;4.50;92.82;97522.59;5047561;28;20671;-84
2021/12/07 04:13:49;;;;;;;3.60;2.77;;;;;;;4.52;92.45;97521.59;5057688;28;20736;-85
2021/12/07 04:16:20;;;;;;;2.90;2.40;;;;;;;4.56;93.38;97522.28;5092865;28;20661;-85
2021/12/07 04:18:54;;;;;;;3.03;2.13;;;;;;;4.58;92.60;97520.44;5044697;28;21001;-84
2021/12/07 04:21:22;;;;;;;3.77;2.40;;;;;;;4.60;92.30;97518.59;5051265;28;20627;-84
2021/12/07 04:23:50;;;;;;;3.27;2.30;;;;;;;4.63;93.09;97528.75;5049905;28;20692;-84
2021/12/07 04:26:18;;;;;;;4.10;2.40;;;;;;;4.64;92.31;97526.09;5066348;28;20642;-84
2021/12/07 04:28:46;;;;;;;3.93;2.43;;;;;;;4.67;92.76;97538.00;5067244;28;20623;-84
2021/12/07 04:31:16;;;;;;;4.37;2.10;;;;;;;4.69;92.27;97539.56;5064791;28;20642;-85
2021/12/07 04:33:45;;;;;;;3.17;2.27;;;;;;;4.71;92.60;97543.75;5049682;28;21064;-85
2021/12/07 04:36:13;;;;;;;3.73;2.73;;;;;;;4.72;92.38;97545.44;5064153;28;20655;-85
2021/12/07 04:38:41;;;;;;;3.50;2.70;;;;;;;4.72;92.20;97553.19;5067637;28;20641;-84
2021/12/07 04:41:10;;;;;;;3.23;2.93;;;;;;;4.74;92.50;97545.34;5080423;28;20632;-84
2021/12/07 04:43:39;;;;;;;3.20;2.37;;;;;;;4.75;92.54;97544.41;5095402;28;20627;-85
2021/12/07 04:46:13;;;;;;;3.90;2.43;;;;;;;4.74;92.47;97559.06;5074005;28;20670;-85
2021/12/07 05:00:03;;;;;;;4.40;2.67;;;;;;;4.77;91.61;97569.25;5025478;28;20720;-85
2021/12/07 05:02:32;;;;;;;2.93;2.00;;;;;;;4.80;92.62;97576.00;5028749;28;20636;-85
2021/12/07 05:05:02;;;;;;;2.80;2.17;;;;;;;4.81;92.66;97575.91;5063881;28;20734;-85
2021/12/07 05:07:35;;;;;;;2.90;2.50;;;;;;;4.81;92.48;97582.81;5042582;28;20696;-85
2021/12/07 05:10:17;;;;;;;2.27;1.90;;;;;;;4.75;91.64;97585.72;5064483;28;20620;-85
2021/12/07 05:13:08;;;;;;;3.83;2.40;;;;;;;4.72;92.41;97585.88;5078652;28;20633;-85
2021/12/07 05:16:00;;;;;;;3.13;1.90;;;;;;;4.66;92.57;97590.56;5056287;28;20632;-85
2021/12/07 05:18:41;;;;;;;4.00;2.10;;;;;;;4.65;92.15;97594.06;5076301;28;20638;-85
2021/12/07 05:24:15;;;;;;;4.20;2.47;;;;;;;4.70;92.99;97609.22;5042275;28;20640;-85
2021/12/07 05:37:57;;;;;;;3.33;2.47;;;;;;;4.76;92.44;97621.78;5061750;28;20787;-85
2021/12/07 05:40:27;;;;;;;3.50;3.13;;;;;;;4.76;93.57;97623.56;5043354;28;20631;-84
2021/12/07 05:42:56;;;;;;;3.33;2.40;;;;;;;4.79;93.12;97623.41;5065065;28;21179;-85
2021/12/07 05:45:27;;;;;;;3.83;2.13;;;;;;;4.81;92.78;97626.72;5043376;28;20628;-85
2021/12/07 05:47:55;;;;;;;3.37;1.90;;;;;;;4.80;92.21;97627.66;5063539;28;20726;-85
2021/12/07 05:50:26;;;;;;;3.43;1.87;;;;;;;4.76;93.16;97629.53;5081692;28;21210;-85
2021/12/07 05:52:57;;;;;;;5.93;2.43;;;;;;;4.71;92.24;97626.38;5050659;28;20650;-85
2021/12/07 05:55:25;;;;;;;2.60;1.57;;;;;;;4.67;93.03;97631.78;5062902;28;21132;-85
2021/12/07 05:57:54;;;;;;;2.70;1.63;;;;;;;4.67;93.11;97628.38;5077702;28;20688;-84
2021/12/07 06:00:27;;;;;;;2.27;1.30;;;;;;;4.73;93.36;97628.88;5060320;28;20796;-85
2021/12/07 06:02:57;;;;;;;3.50;1.47;;;;;;;4.78;92.72;97634.63;5065728;28;20664;-84
2021/12/07 06:05:27;;;;;;;2.10;1.70;;;;;;;4.82;93.05;97633.56;5065691;28;21070;-84
2021/12/07 06:07:57;;;;;;;2.30;1.40;;;;;;;4.82;92.47;97643.91;5051225;28;20628;-85
2021/12/07 06:10:26;;;;;;;3.00;1.70;;;;;;;4.85;93.38;97648.91;5065185;28;20635;-85
2021/12/07 06:12:54;;;;;;;5.07;1.70;;;;;;;4.92;93.28;97645.09;5059674;28;21203;-85
2021/12/07 06:15:24;;;;;;;2.40;1.70;;;;;;;4.95;92.50;97644.91;5062952;28;20628;-85
2021/12/07 06:17:53;;;;;;;3.20;1.70;;;;;;;4.96;92.62;97651.72;5068233;28;21214;-85
2021/12/07 06:20:22;;;;;;;4.60;1.43;;;;;;;4.97;91.95;97650.84;5051001;28;20637;-85
2021/12/07 06:23:12;;;;;;;2.73;1.50;;;;;;;5.00;91.91;97653.25;5062532;28;20621;-85
2021/12/07 06:25:40;;;;;;;3.40;1.63;;;;;;;5.00;92.46;97653.25;5058132;28;20650;-85
2021/12/07 06:28:09;;;;;;;3.63;2.00;;;;;;;5.01;91.84;97657.50;5045405;28;20720;-84
2021/12/07 06:30:41;;;;;;;3.43;1.70;;;;;;;4.88;91.66;97653.91;5062126;28;20657;-83
2021/12/07 06:33:10;;;;;;;3.53;2.40;;;;;;;4.79;91.96;97654.38;5096480;28;20627;-82
2021/12/07 06:35:38;;;;;;;2.63;1.90;;;;;;;4.75;92.72;97668.38;5066242;28;20636;-81
2021/12/07 06:38:06;;;;;;;3.10;1.90;;;;;;;4.75;93.20;97668.38;5063945;28;20658;-83
2021/12/07 06:40:35;;;;;;;6.10;2.40;;;;;;;4.72;92.74;97663.34;5050235;28;20728;-84
2021/12/07 06:43:04;;;;;;;2.70;1.90;;;;;;;4.72;93.06;97669.38;5051195;28;21639;-83
2021/12/07 06:45:34;;;;;;;4.33;2.27;;;;;;;4.74;93.03;97677.03;5065806;28;20643;-83
2021/12/07 06:48:02;;;;;;;4.53;2.43;;;;;;;4.75;92.99;97673.53;5080251;28;21166;-83
2021/12/07 06:50:30;;;;;;;4.20;2.03;;;;;;;4.75;92.23;97673.53;5050746;28;20650;-83
2021/12/07 06:52:59;;;;;;;3.07;1.97;;;;;;;4.79;92.08;97680.22;5066341;28;20624;-82
2021/12/07 06:55:27;;;;;;;4.10;2.13;;;;;;;4.77;92.45;97677.72;5067233;28;20724;-82
2021/12/07 06:57:56;;;;;;;5.03;2.87;;;;;;;4.81;91.78;97678.38;5063344;28;20685;-82
2021/12/07 07:00:25;;;;;;;2.17;1.93;;;;;;;4.79;92.02;97675.03;5051298;28;20619;-82
2021/12/07 07:02:53;;;;;;;3.13;2.00;;;;;;;4.80;91.58;97682.72;5063581;28;20628;-82
2021/12/07 07:05:22;;;;;;;3.70;1.80;;;;;;;4.80;92.29;97687.88;5065020;28;20646;-82
2021/12/07 07:07:50;;;;;;;3.43;2.07;;;;;;;4.84;92.15;97696.28;5047694;28;20743;-82
2021/12/07 07:10:20;;;;;;;5.13;2.30;;;;;;;4.88;92.58;97695.22;5048378;28;20663;-82
2021/12/07 07:12:49;;;;;;;4.90;2.10;;;;;;;4.92;92.10;97701.91;5095178;28;20642;-82
2021/12/07 07:15:19;;;;;;;5.73;2.40;;;;;;;4.95;92.16;97707.75;5095620;28;20708;-82
2021/12/07 07:17:47;;;;;;;3.60;2.23;;;;;;;4.99;91.93;97709.25;5065006;28;21223;-82
2021/12/07 07:20:17;;;;;;;6.77;2.40;;;;;;;4.97;92.20;97712.84;5048124;28;21283;-83
2021/12/07 07:22:45;;;;;;;3.17;1.97;;;;;;;5.03;92.04;97726.25;5065140;28;21217;-85
2021/12/07 07:25:14;;;;;;;6.10;2.70;;;;;;;5.11;91.74;97723.28;5044083;28;20642;-85
2021/12/07 07:27:43;;;;;;;7.33;2.40;;;;;;;5.19;91.36;97722.78;5052587;28;20647;-86
2021/12/07 07:30:13;;;;;;;5.57;3.00;;;;;;;5.22;91.59;97720.03;5064744;28;21274;-85
2021/12/07 07:32:43;;;;;;;3.90;2.40;;;;;;;5.29;90.93;97718.81;5066012;28;20628;-89
2021/12/07 07:35:13;;;;;;;5.50;2.53;;;;;;;5.30;91.02;97735.97;5078382;28;20639;-85
2021/12/07 07:37:41;;;;;;;7.83;3.17;;;;;;;5.28;91.47;97732.63;5032854;28;20651;-84
2021/12/07 07:40:13;;;;;;;4.23;2.40;;;;;;;5.29;91.03;97738.63;5056961;28;20629;-83
2021/12/07 07:42:42;;;;;;;8.37;2.77;;;;;;;5.29;91.32;97736.03;5062085;28;20740;-84
2021/12/07 07:45:24;;;;;;;4.00;2.23;;;;;;;5.30;91.31;97735.13;5078362;28;20635;-84
2021/12/07 07:47:55;;;;;;;3.70;2.13;;;;;;;5.30;91.77;97746.31;5063685;28;20735;-84
2021/12/07 07:50:23;;;;;;;6.07;2.23;;;;;;;5.34;91.76;97745.22;5045829;28;20639;-85
2021/12/07 07:52:52;;;;;;;6.00;2.40;;;;;;;5.34;91.47;97755.56;5066229;28;20620;-84
2021/12/07 07:55:20;;;;;;;4.47;2.63;;;;;;;5.34;91.19;97752.16;5068698;28;20626;-84
2021/12/07 07:57:48;;;;;;;7.30;2.40;;;;;;;5.35;91.46;97744.31;5038117;28;21239;-85
2021/12/07 08:00:18;;;;;;;6.30;2.10;;;;;;;5.37;91.33;97750.25;5059882;28;20642;-85
2021/12/07 08:02:47;;;;;;;5.17;2.33;;;;;;;5.41;91.77;97759.50;5061953;28;20732;-85
2021/12/07 08:05:17;;;;;;;10.20;4.33;;;;;;;5.45;91.67;97755.81;5065657;28;20620;-86
2021/12/07 08:07:47;;;;;;;4.17;2.20;;;;;;;5.48;91.64;97755.66;5051089;28;20664;-85
2021/12/07 08:10:18;;;;;;;4.97;2.73;;;;;;;5.52;91.32;97758.91;5050196;28;21171;-85
2021/12/07 08:12:46;;;;;;;4.17;2.50;;;;;;;5.58;91.49;97763.75;5094507;28;20629;-85
2021/12/07 08:15:15;;;;;;;4.83;2.50;;;;;;;5.66;91.61;97770.19;5059823;28;20885;-85
2021/12/07 08:17:43;;;;;;;3.70;2.50;;;;;;;5.69;92.04;97762.25;5047638;28;20698;-85
2021/12/07 08:20:12;;;;;;;6.27;2.87;;;;;;;5.77;91.57;97773.91;5064037;28;20643;-84
2021/12/07 08:22:42;;;;;;;4.70;2.90;;;;;;;5.83;91.87;97772.72;5045716;28;20616;-84
2021/12/07 08:25:10;;;;;;;7.47;2.33;;;;;;;5.86;91.24;97777.72;5062957;28;20688;-85
2021/12/07 08:27:38;;;;;;;4.33;2.27;;;;;;;5.91;91.28;97783.47;5046311;28;21207;-85
2021/12/07 08:30:09;;;;;;;4.03;2.30;;;;;;;5.96;90.98;97778.91;5073551;28;20649;-85
2021/12/07 08:32:39;;;;;;;4.50;2.20;;;;;;;6.01;90.72;97776.88;5076054;28;20620;-85
2021/12/07 08:35:07;;;;;;;6.40;2.60;;;;;;;6.08;90.10;97772.09;5059482;28;20627;-85
2021/12/07 08:37:36;;;;;;;6.23;2.27;;;;;;;6.08;90.32;97782.47;5050767;28;20648;-84
2021/12/07 08:40:08;;;;;;;6.00;2.10;;;;;;;6.14;89.85;97789.88;5049259;28;20669;-84
2021/12/07 08:42:37;;;;;;;4.37;2.00;;;;;;;6.14;90.15;97783.88;5059630;28;21299;-85
2021/12/07 08:45:06;;;;;;;5.60;3.13;;;;;;;6.18;89.89;97796.56;5050085;28;20628;-85
2021/12/07 08:47:35;;;;;;;7.30;2.37;;;;;;;6.19;89.50;97793.06;5049414;28;20624;-85
2021/12/07 08:50:14;;;;;;;6.07;2.10;;;;;;;6.21;89.93;97805.94;5067007;28;20653;-84
2021/12/07 08:52:43;;;;;;;7.37;3.03;;;;;;;6.25;89.35;97797.88;5044857;28;21022;-85
2021/12/07 09:00:46;;;;;;;8.03;2.83;;;;;;;6.19;89.46;97803.44;5048961;28;20631;-84
2021/12/07 09:03:15;;;;;;;6.10;2.40;;;;;;;6.18;89.31;97801.75;5061729;28;20644;-85
2021/12/07 09:05:43;;;;;;;3.83;2.13;;;;;;;6.19;89.71;97811.19;5059823;28;21215;-84
2021/12/07 09:08:11;;;;;;;8.77;2.43;;;;;;;6.22;89.48;97821.38;5054606;28;20730;-85
2021/12/07 09:10:41;;;;;;;8.20;2.50;;;;;;;6.21;88.23;97811.94;5051560;28;20678;-84
2021/12/07 09:13:09;;;;;;;6.30;3.27;;;;;;;6.22;89.02;97810.16;5064203;28;20727;-85
2021/12/07 09:15:39;;;;;;;6.40;3.80;;;;;;;6.19;88.67;97803.44;5062548;28;20634;-84
2021/12/07 09:18:07;;;;;;;11.10;2.40;;;;;;;6.21;88.91;97804.16;5047600;28;20648;-85
2021/12/07 09:20:36;;;;;;;6.10;2.60;;;;;;;6.27;88.92;97796.06;5058778;28;20731;-85
2021/12/07 09:23:05;;;;;;;7.70;2.30;;;;;;;6.30;88.07;97813.16;5050956;28;21433;-85
2021/12/07 09:25:33;;;;;;;9.80;2.50;;;;;;;6.36;88.24;97813.66;5064915;28;21328;-84
2021/12/07 09:28:03;;;;;;;5.70;2.30;;;;;;;6.33;88.11;97810.41;5057807;28;20671;-85
2021/12/07 09:30:32;;;;;;;5.93;2.03;;;;;;;6.36;87.28;97820.59;5075171;28;20633;-85
2021/12/07 09:33:00;;;;;;;7.23;2.10;;;;;;;6.37;87.25;97812.72;5047020;28;20666;-84
2021/12/07 09:35:28;;;;;;;7.20;2.27;;;;;;;6.41;87.23;97819.41;5067289;28;20763;-85
2021/12/07 09:37:57;;;;;;;6.20;2.13;;;;;;;6.44;86.97;97836.56;5050916;28;21217;-85
2021/12/07 09:40:29;;;;;;;7.60;2.30;;;;;;;6.41;86.87;97810.81;5077983;28;20686;-84
2021/12/07 09:42:58;;;;;;;6.03;2.10;;;;;;;6.41;86.40;97816.81;5078307;28;21204;-85
2021/12/07 09:45:31;;;;;;;8.20;2.07;;;;;;;6.46;86.68;97822.56;5062949;28;20681;-85
2021/12/07 09:48:00;;;;;;;6.30;1.77;;;;;;;6.49;87.52;97811.22;5067445;28;21282;-84
2021/12/07 09:50:29;;;;;;;4.20;2.00;;;;;;;6.53;87.20;97818.72;5068594;28;20635;-85
2021/12/07 09:52:58;;;;;;;5.17;2.13;;;;;;;6.55;86.76;97822.06;5067327;28;20636;-84
2021/12/07 09:55:28;;;;;;;4.37;1.90;;;;;;;6.59;86.94;97815.78;5051198;28;20674;-84
2021/12/07 09:57:56;;;;;;;7.67;2.60;;;;;;;6.64;85.88;97816.34;5067235;28;20627;-85
2021/12/07 10:00:26;;;;;;;11.40;3.17;;;;;;;6.67;86.28;97818.78;5058331;28;20687;-84
2021/12/07 10:02:56;;;;;;;10.90;4.67;;;;;;;6.71;86.03;97818.50;5048428;28;21264;-85
2021/12/07 10:05:30;;;;;;;8.57;4.50;;;;;;;6.76;86.17;97826.00;5046458;28;20666;-84
2021/12/07 10:07:59;;;;;;;6.93;3.50;;;;;;;6.81;86.04;97821.38;5059541;28;20634;-85
2021/12/07 10:10:30;;;;;;;7.43;3.37;;;;;;;6.87;85.98;97802.91;5068080;28;20743;-84
2021/12/07 10:12:58;;;;;;;8.60;2.90;;;;;;;6.90;85.58;97790.63;5061732;28;20676;-85
2021/12/07 10:15:27;;;;;;;8.40;2.90;;;;;;;6.93;85.95;97803.41;5066404;28;20735;-85
2021/12/07 10:18:07;;;;;;;5.03;2.90;;;;;;;7.04;85.04;97819.16;5079663;28;20628;-85
2021/12/07 10:20:54;;;;;;;6.90;3.03;;;;;;;7.05;84.50;97826.84;5059613;28;20619;-85
2021/12/07 10:23:28;;;;;;;7.03;2.30;;;;;;;7.06;84.95;97815.50;5054449;28;21196;-84
2021/12/07 10:26:03;;;;;;;5.50;2.27;;;;;;;7.10;85.85;97809.25;5067616;28;21021;-85
2021/12/07 10:28:36;;;;;;;10.20;4.20;;;;;;;7.13;85.02;97818.59;5068731;28;20641;-84
2021/12/07 10:31:15;;;;;;;19.80;8.07;;;;;;;7.17;84.57;97826.09;5068133;28;20997;-86
2021/12/07 10:33:47;;;;;;;5.03;3.47;;;;;;;7.16;84.94;97834.81;5060832;28;20639;-86
2021/12/07 10:36:18;;;;;;;8.90;5.47;;;;;;;7.17;84.21;97822.66;5069457;28;21179;-85
2021/12/07 10:38:50;;;;;;;9.00;4.07;;;;;;;7.19;85.63;97826.84;5059358;28;20656;-86
2021/12/07 10:41:22;;;;;;;7.23;3.10;;;;;;;7.21;84.70;97811.19;5074379;28;20625;-86
2021/12/07 10:44:00;;;;;;;7.50;2.73;;;;;;;7.22;84.80;97803.31;5049728;28;20631;-86
2021/12/07 10:46:56;;;;;;;4.50;2.53;;;;;;;7.22;84.35;97800.72;5060242;28;20652;-86
2021/12/07 10:49:34;;;;;;;9.03;2.87;;;;;;;7.39;84.54;97802.31;5056540;28;21219;-85
2021/12/07 10:52:18;;;;;;;10.93;3.10;;;;;;;7.54;84.71;97802.22;5048471;28;20628;-84
2021/12/07 10:54:53;;;;;;;6.87;3.37;;;;;;;7.73;83.75;97784.59;5060299;28;20636;-84
2021/12/07 10:57:23;;;;;;;6.60;2.93;;;;;;;7.86;80.23;97780.28;5059311;28;21265;-84
2021/12/07 11:00:04;;;;;;;9.00;3.13;;;;;;;8.03;80.22;97770.53;5077102;28;20658;-84
2021/12/07 11:02:34;;;;;;;5.80;3.03;;;;;;;8.21;79.25;97759.81;5052497;28;20616;-84
2021/12/07 11:05:09;;;;;;;4.70;1.87;;;;;;;8.30;77.54;97756.63;5078555;28;20627;-84
2021/12/07 11:07:39;;;;;;;5.27;2.77;;;;;;;8.35;77.56;97759.75;5065691;28;20652;-84
2021/12/07 11:10:11;;;;;;;5.83;2.83;;;;;;;8.40;75.75;97749.06;5077404;28;20616;-84
2021/12/07 11:12:59;;;;;;;6.43;1.90;;;;;;;8.37;72.46;97747.50;5066537;28;20636;-84
2021/12/07 11:15:29;;;;;;;4.20;1.90;;;;;;;8.33;73.46;97734.81;5042605;28;20632;-84
2021/12/07 11:17:59;;;;;;;9.03;1.70;;;;;;;8.37;73.93;97736.28;5067586;28;21052;-84
2021/12/07 11:20:30;;;;;;;8.73;1.70;;;;;;;8.41;74.14;97741.19;5051709;28;20655;-84
2021/12/07 11:23:02;;;;;;;7.80;2.27;;;;;;;8.46;73.32;97736.50;5054221;28;20671;-83
2021/12/07 11:31:20;;;;;;;3.27;1.30;;;;;;;8.66;72.37;97736.00;5067833;28;20670;-84
2021/12/07 11:33:51;;;;;;;6.63;1.90;;;;;;;8.63;71.78;97736.22;5077246;28;20667;-84
2021/12/07 11:36:24;;;;;;;10.07;2.10;;;;;;;8.58;72.37;97739.13;5057376;28;21214;-84
2021/12/07 11:38:55;;;;;;;8.87;1.57;;;;;;;8.50;70.84;97744.00;5047498;28;20656;-84
2021/12/07 11:41:27;;;;;;;3.27;1.30;;;;;;;8.37;73.20;97720.69;5065378;28;21237;-84
2021/12/07 11:43:59;;;;;;;5.07;1.70;;;;;;;8.33;72.68;97722.66;5046218;28;20824;-83
2021/12/07 11:46:28;;;;;;;5.43;1.90;;;;;;;8.24;72.56;97725.88;5065156;28;20659;-84
2021/12/07 11:49:13;;;;;;;3.70;1.60;;;;;;;8.19;73.89;97727.09;5059860;28;20655;-84
2021/12/07 11:51:45;;;;;;;3.23;1.60;;;;;;;8.14;72.73;97729.97;5040475;28;20667;-84
2021/12/07 11:54:15;;;;;;;2.67;1.37;;;;;;;8.09;71.87;97734.59;5058097;28;20621;-85
2021/12/07 11:56:45;;;;;;;5.07;2.63;;;;;;;7.92;73.25;97735.78;5084957;28;20639;-85
2021/12/07 11:59:17;;;;;;;9.00;2.00;;;;;;;7.81;73.10;97740.81;5046175;28;20637;-85
2021/12/07 12:01:47;;;;;;;6.67;1.90;;;;;;;7.66;73.78;97728.81;5060268;28;20628;-85
2021/12/07 12:04:17;;;;;;;5.70;1.53;;;;;;;7.63;73.24;97731.59;5092904;28;20726;-84
2021/12/07 12:06:48;;;;;;;5.73;2.13;;;;;;;7.60;74.27;97732.59;5068403;28;21261;-85
2021/12/07 12:09:17;;;;;;;3.60;1.50;;;;;;;7.60;73.30;97732.59;5077118;28;20652;-86
2021/12/07 12:11:52;;;;;;;8.73;2.00;;;;;;;7.66;73.53;97721.84;5061594;28;20670;-86
2021/12/07 12:14:45;;;;;;;8.70;1.97;;;;;;;7.68;73.68;97722.59;5048524;28;20631;-86
2021/12/07 12:17:19;;;;;;;8.47;1.93;;;;;;;7.72;74.08;97712.84;5056527;28;20727;-87
2021/12/07 12:20:02;;;;;;;6.50;1.87;;;;;;;7.76;74.75;97716.94;5094542;28;20789;-87
2021/12/07 12:22:36;;;;;;;5.17;1.83;;;;;;;7.88;74.51;97708.34;5048600;28;20630;-86
2021/12/07 12:25:07;;;;;;;9.17;2.43;;;;;;;7.96;74.33;97706.09;5063379;28;21263;-86
2021/12/07 12:27:41;;;;;;;7.20;1.77;;;;;;;7.96;73.86;97699.16;5078118;28;20639;-87
2021/12/07 12:30:20;;;;;;;7.00;1.70;;;;;;;8.06;73.22;97701.06;5045446;28;20609;-86
2021/12/07 12:32:55;;;;;;;6.07;1.87;;;;;;;8.11;73.38;97691.22;5047757;28;20714;-87
2021/12/07 12:35:32;;;;;;;3.40;1.60;;;;;;;8.15;74.14;97668.50;5081911;28;20734;-87
2021/12/07 12:38:03;;;;;;;4.13;2.03;;;;;;;8.24;72.86;97680.84;5058243;28;20629;-85
2021/12/07 12:40:33;;;;;;;10.60;2.70;;;;;;;8.16;73.64;97672.75;5058824;28;20705;-83
2021/12/07 12:43:03;;;;;;;4.87;1.80;;;;;;;8.03;73.66;97667.50;5046733;28;21203;-85
2021/12/07 12:45:35;;;;;;;4.23;1.83;;;;;;;8.17;73.93;97664.84;5064916;28;20639;-85
2021/12/07 12:48:08;;;;;;;10.20;4.00;;;;;;;8.20;74.11;97663.81;5060524;28;20648;-85
2021/12/07 12:50:46;;;;;;;7.20;3.80;;;;;;;8.19;73.88;97652.59;5063305;28;21004;-85
2021/12/07 12:53:18;;;;;;;5.53;1.50;;;;;;;8.01;73.93;97651.19;5049622;28;20628;-85
2021/12/07 12:55:48;;;;;;;7.87;2.37;;;;;;;7.99;73.54;97653.03;5060326;28;20628;-85
2021/12/07 12:58:20;;;;;;;5.50;1.97;;;;;;;8.02;73.85;97645.03;5065628;28;20623;-85
2021/12/07 13:01:17;;;;;;;4.13;1.50;;;;;;;8.03;73.26;97648.50;5065101;28;20747;-84
2021/12/07 13:04:08;;;;;;;5.37;1.63;;;;;;;8.07;71.96;97647.34;5066564;28;21239;-85
2021/12/07 13:06:51;;;;;;;8.40;1.30;;;;;;;8.03;73.66;97653.69;5064612;28;20675;-84
2021/12/07 13:09:27;;;;;;;5.05;1.50;;;;;;;8.06;71.37;97654.31;5064344;28;20754;-87
2021/12/07 13:11:57;;;;;;;7.40;1.40;;;;;;;8.06;70.26;97649.13;5060435;28;20244;-84
2021/12/07 13:14:32;;;;;;;4.57;1.33;;;;;;;8.04;71.10;97644.94;5054703;28;20719;-84
2021/12/07 13:17:08;;;;;;;6.27;1.50;;;;;;;7.86;70.12;97647.91;5059985;28;20638;-84
2021/12/07 13:20:13;;;;;;;4.50;1.23;;;;;;;7.83;69.99;97653.31;5065358;28;20646;-84
2021/12/07 13:22:44;;;;;;;3.70;1.13;;;;;;;7.82;70.12;97649.03;5053465;28;20623;-84